createdAt,value
2019-01-15T00:03:41.866Z,4.20
2019-01-15T00:08:45.572Z,4.30
2019-01-15T00:13:48.983Z,4.20
2019-01-15T00:18:52.383Z,4.20
2019-01-15T00:23:55.784Z,4.20
2019-01-15T00:28:59.179Z,4.30
2019-01-15T00:34:02.936Z,4.20
2019-01-15T00:39:07.936Z,4.00
2019-01-15T00:44:11.351Z,3.70
2019-01-15T00:49:15.193Z,3.70
2019-01-15T00:54:18.588Z,3.80
2019-01-15T00:59:22.016Z,3.70
2019-01-15T01:04:25.483Z,3.90
2019-01-15T01:09:28.958Z,3.90
2019-01-15T01:14:32.774Z,4.00
2019-01-15T01:19:36.164Z,3.80
2019-01-15T01:24:39.908Z,3.80
2019-01-15T01:29:43.300Z,3.90
2019-01-15T01:34:46.705Z,4.10
2019-01-15T01:39:50.100Z,4.10
2019-01-15T01:44:53.494Z,4.00
2019-01-15T01:49:57.197Z,4.00
2019-01-15T01:55:00.593Z,4.10
2019-01-15T02:00:07.318Z,4.10
2019-01-15T02:05:10.697Z,4.20
2019-01-15T02:10:16.039Z,4.10
2019-01-15T02:15:21.061Z,4.10
2019-01-15T02:20:24.504Z,4.00
2019-01-15T02:25:27.924Z,3.80
2019-01-15T02:30:31.704Z,3.60
2019-01-15T02:35:35.158Z,3.40
2019-01-15T02:40:38.552Z,3.30
2019-01-15T02:45:42.233Z,3.10
2019-01-15T02:50:45.627Z,3.30
2019-01-15T02:55:49.041Z,3.40
2019-01-15T03:00:52.441Z,3.50
2019-01-15T03:05:56.140Z,3.50
2019-01-15T03:10:59.830Z,3.20
2019-01-15T03:16:03.227Z,2.90
2019-01-15T03:21:06.976Z,3.10
2019-01-15T03:26:10.369Z,3.20
2019-01-15T03:31:13.765Z,3.30
2019-01-15T03:36:17.226Z,3.40
2019-01-15T03:41:20.612Z,3.30
2019-01-15T03:46:24.008Z,3.40
2019-01-15T03:51:27.407Z,3.50
2019-01-15T03:56:30.865Z,3.40
2019-01-15T04:01:34.653Z,3.50
2019-01-15T04:06:38.044Z,3.50
2019-01-15T04:11:41.439Z,3.30
2019-01-15T04:16:44.845Z,3.40
2019-01-15T04:21:48.629Z,3.50
2019-01-15T04:26:52.293Z,3.40
2019-01-15T04:31:56.081Z,3.40
2019-01-15T04:36:59.809Z,3.40
2019-01-15T04:42:03.212Z,3.40
2019-01-15T04:47:06.922Z,3.40
2019-01-15T04:52:10.673Z,3.40
2019-01-15T04:57:14.350Z,3.10
2019-01-15T05:02:17.755Z,2.90
2019-01-15T05:07:21.153Z,3.00
2019-01-15T05:12:24.549Z,2.90
2019-01-15T05:17:27.953Z,3.00
2019-01-15T05:22:31.425Z,3.10
2019-01-15T05:27:35.215Z,3.00
2019-01-15T05:32:38.621Z,2.70
2019-01-15T05:37:42.092Z,2.90
2019-01-15T05:42:45.489Z,3.00
2019-01-15T05:47:49.665Z,2.90
2019-01-15T05:52:53.430Z,3.00
2019-01-15T05:57:57.163Z,3.00
2019-01-15T06:03:00.722Z,2.90
2019-01-15T06:08:04.679Z,3.00
2019-01-15T06:13:08.088Z,3.00
2019-01-15T06:18:11.821Z,3.00
2019-01-15T06:23:15.225Z,3.10
2019-01-15T06:28:18.641Z,3.10
2019-01-15T06:33:22.061Z,3.00
2019-01-15T06:38:25.793Z,3.10
2019-01-15T06:43:29.559Z,3.30
2019-01-15T06:48:32.953Z,3.40
2019-01-15T06:53:36.349Z,3.40
2019-01-15T06:58:40.111Z,3.70
2019-01-15T07:03:43.513Z,3.70
2019-01-15T07:08:46.926Z,3.80
2019-01-15T07:13:56.884Z,3.80
2019-01-15T07:18:55.382Z,3.80
2019-01-15T07:23:58.982Z,3.90
2019-01-15T07:29:03.158Z,4.00
2019-01-15T07:34:06.586Z,4.00
2019-01-15T07:39:10.390Z,4.00
2019-01-15T07:44:13.821Z,3.90
2019-01-15T07:49:17.217Z,4.00
2019-01-15T07:54:20.979Z,4.10
2019-01-15T07:59:24.703Z,4.00
2019-01-15T08:04:28.401Z,3.80
2019-01-15T08:09:31.809Z,3.70
2019-01-15T08:14:35.218Z,3.80
2019-01-15T08:19:38.637Z,4.00
2019-01-15T08:24:42.402Z,4.20
2019-01-15T08:29:45.806Z,4.40
2019-01-15T08:34:49.221Z,4.60
2019-01-15T08:39:52.942Z,4.80
2019-01-15T08:44:57.173Z,5.10
2019-01-15T08:50:00.746Z,5.30
2019-01-15T08:55:05.612Z,5.50
2019-01-15T09:00:14.129Z,5.60
2019-01-15T09:05:17.895Z,5.60
2019-01-15T09:10:21.365Z,5.40
2019-01-15T09:15:24.775Z,5.50
2019-01-15T09:20:28.251Z,5.70
2019-01-15T09:25:31.735Z,5.50
2019-01-15T09:30:35.132Z,5.50
2019-01-15T09:35:38.529Z,5.50
2019-01-15T09:40:41.931Z,5.70
2019-01-15T09:45:45.598Z,5.50
2019-01-15T09:50:49.022Z,5.50
2019-01-15T09:55:52.434Z,6.80
2019-01-15T10:00:55.839Z,6.70
2019-01-15T10:05:59.260Z,7.40
2019-01-15T10:11:02.670Z,9.40
2019-01-15T10:16:06.093Z,10.90
2019-01-15T10:21:09.521Z,11.90
2019-01-15T10:26:12.955Z,12.00
2019-01-15T10:31:37.842Z,11.50
2019-01-15T10:36:40.386Z,9.80
2019-01-15T10:41:43.793Z,10.30
2019-01-15T10:46:47.205Z,10.70
2019-01-15T10:51:50.930Z,10.30
2019-01-15T10:56:54.334Z,10.10
2019-01-15T11:01:57.746Z,11.90
2019-01-15T11:07:01.530Z,12.20
2019-01-15T11:12:04.933Z,13.40
2019-01-15T11:17:08.401Z,13.30
2019-01-15T11:22:12.157Z,13.10
2019-01-15T11:27:15.575Z,13.30
2019-01-15T11:32:18.970Z,13.30
2019-01-15T11:37:22.370Z,15.60
2019-01-15T11:42:25.774Z,15.40
2019-01-15T11:47:29.194Z,16.20
2019-01-15T11:52:32.635Z,16.20
2019-01-15T11:57:36.061Z,17.20
2019-01-15T12:02:39.670Z,17.20
2019-01-15T12:08:01.075Z,17.00
2019-01-15T12:13:11.837Z,17.90
2019-01-15T12:18:16.898Z,17.70
2019-01-15T12:23:28.072Z,16.70
2019-01-15T12:28:42.057Z,16.30
2019-01-15T12:33:56.165Z,16.40
2019-01-15T12:39:02.208Z,18.10
2019-01-15T12:44:23.507Z,17.40
2019-01-15T12:49:34.574Z,17.50
2019-01-15T12:54:39.938Z,15.30
2019-01-15T13:00:01.020Z,14.30
2019-01-15T13:05:10.551Z,15.20
2019-01-15T13:10:24.177Z,15.60
2019-01-15T13:15:41.130Z,15.80
2019-01-15T13:20:54.952Z,16.30
2019-01-15T13:26:02.970Z,15.50
2019-01-15T13:31:10.720Z,13.50
2019-01-15T13:36:27.717Z,12.40
2019-01-15T13:41:38.517Z,12.20
2019-01-15T13:46:43.893Z,12.10
2019-01-15T13:52:06.822Z,11.60
2019-01-15T13:57:15.187Z,11.60
2019-01-15T14:02:20.241Z,11.90
2019-01-15T14:07:34.205Z,11.60
2019-01-15T14:12:45.158Z,12.60
2019-01-15T14:17:59.131Z,13.70
2019-01-15T14:23:13.138Z,15.10
2019-01-15T14:28:19.667Z,15.00
2019-01-15T14:33:30.226Z,16.10
2019-01-15T14:38:39.030Z,15.90
2019-01-15T14:44:00.450Z,16.20
2019-01-15T14:49:22.183Z,16.30
2019-01-15T14:54:27.231Z,15.50
2019-01-15T14:59:41.902Z,14.70
2019-01-15T15:04:49.693Z,12.40
2019-01-15T15:10:07.046Z,11.10
2019-01-15T15:15:28.223Z,10.10
2019-01-15T15:20:36.208Z,9.00
2019-01-15T15:25:59.402Z,8.40
2019-01-15T15:31:04.443Z,8.20
2019-01-15T15:36:26.414Z,7.90
2019-01-15T15:41:31.461Z,7.70
2019-01-15T15:46:42.619Z,7.60
2019-01-15T15:52:05.861Z,7.50
2019-01-15T15:57:14.186Z,7.40
2019-01-15T16:02:25.205Z,7.40
2019-01-15T16:07:46.882Z,7.40
2019-01-15T16:13:08.270Z,7.30
2019-01-15T16:18:19.596Z,7.20
2019-01-15T16:23:27.992Z,7.30
2019-01-15T16:28:49.967Z,7.20
2019-01-15T16:34:01.442Z,7.10
2019-01-15T16:39:25.422Z,7.00
2019-01-15T16:44:46.890Z,6.80
2019-01-15T16:50:11.119Z,6.70
2019-01-15T16:55:24.782Z,6.70
2019-01-15T17:00:35.865Z,6.60
2019-01-15T17:05:40.909Z,6.60
2019-01-15T17:11:02.318Z,6.50
2019-01-15T17:16:23.357Z,6.50
2019-01-15T17:21:34.685Z,6.40
2019-01-15T17:26:40.045Z,6.30
2019-01-15T17:32:03.431Z,6.40
2019-01-15T17:37:24.886Z,6.30
2019-01-15T17:42:29.926Z,6.50
2019-01-15T17:47:41.125Z,6.40
2019-01-15T17:52:49.087Z,6.40
2019-01-15T17:58:10.306Z,6.20
2019-01-15T18:03:30.483Z,6.00
2019-01-15T18:08:47.613Z,6.10
2019-01-15T18:14:11.161Z,6.20
2019-01-15T18:19:22.368Z,6.00
2019-01-15T18:30:05.686Z,5.90
2019-01-15T18:35:26.299Z,5.80
2019-01-15T18:40:34.367Z,5.90
2019-01-15T18:45:39.426Z,5.90
2019-01-15T18:51:00.567Z,5.90
2019-01-15T18:56:08.457Z,5.80
2019-01-15T19:01:16.999Z,5.70
2019-01-15T19:06:27.672Z,5.70
2019-01-15T19:11:32.917Z,5.80
2019-01-15T19:16:53.020Z,5.60
2019-01-15T19:21:58.942Z,5.80
2019-01-15T19:27:05.069Z,5.80
2019-01-15T19:32:25.248Z,5.80
2019-01-15T19:37:31.295Z,5.80
2019-01-15T19:42:37.338Z,5.80
2019-01-15T19:47:46.319Z,5.80
2019-01-15T19:53:04.639Z,5.70
2019-01-15T19:58:10.636Z,5.80
2019-01-15T20:03:25.316Z,5.80
2019-01-15T20:08:34.321Z,5.70
2019-01-15T20:13:37.506Z,5.70
2019-01-15T20:18:58.686Z,5.70
2019-01-15T20:24:10.988Z,5.70
2019-01-15T20:29:32.819Z,5.70
2019-01-15T20:34:38.727Z,5.80
2019-01-15T20:39:44.774Z,5.70
2019-01-15T20:44:50.939Z,5.60
2019-01-15T20:50:06.248Z,5.60
2019-01-15T20:55:28.104Z,5.60
2019-01-15T21:00:31.325Z,5.50
2019-01-15T21:05:46.870Z,5.40
2019-01-15T21:10:56.149Z,5.20
2019-01-15T21:15:59.714Z,5.20
2019-01-15T21:21:15.202Z,5.40
2019-01-15T21:26:18.728Z,5.50
2019-01-15T21:31:27.928Z,5.50
2019-01-15T21:36:43.215Z,5.30
2019-01-15T21:41:49.153Z,5.40
2019-01-15T21:46:55.465Z,5.30
2019-01-15T21:52:01.834Z,5.30
2019-01-15T21:57:08.062Z,5.00
2019-01-15T22:02:20.555Z,5.20
2019-01-15T22:07:24.029Z,5.00
2019-01-15T22:12:27.219Z,5.00
2019-01-15T22:17:47.638Z,5.10
2019-01-15T22:23:05.938Z,5.00
2019-01-15T22:28:12.125Z,4.90
2019-01-15T22:33:33.686Z,5.00
2019-01-15T22:44:56.018Z,4.80
2019-01-15T22:50:15.845Z,4.80
2019-01-15T22:55:22.292Z,4.80
2019-01-15T23:00:48.817Z,4.40
2019-01-15T23:06:08.645Z,4.30
2019-01-15T23:11:11.830Z,4.20
2019-01-15T23:16:15.022Z,4.20
2019-01-15T23:21:34.833Z,3.80
2019-01-15T23:26:38.612Z,3.70
2019-01-15T23:31:41.767Z,3.70
2019-01-15T23:36:59.796Z,3.60
2019-01-15T23:42:19.505Z,3.30
2019-01-15T23:47:22.689Z,3.20
2019-01-15T23:52:38.030Z,3.30
2019-01-15T23:57:41.635Z,3.10
